CheckWX is a tool to help pilots better visualize weather data.  It is not intended as a substitute for an official pre-flight weather briefing.

20:50:34 UTC

KMEB METAR
Laurinburg-Maxton Airport
Maxton, North Carolina, USA
Current

59 mins ago

KMEB 161952Z AUTO 24011G15KT 10SM FEW050 FEW070 32/19 A3001 RMK AO2 SLP160 T03170189
Observed
Jun-16 @ 19:52 UTC
Wind
  • 240° at 11 KTS
  • Gusting to 15 KTS
Visibility
10 SM
Flight Rules
VFR
Cloud Levels
  • Few at 5,000' AGL
  • Few at 7,000' AGL
Temperature
32°C / 90°F
Dewpoint
19°C / 66°F
Heat Index
34°C / 93°F
Humidity
46%
Altimeter
30.01" Hg
Pressure
1016.22 hPa
Previous

2 hours ago

KMEB 161852Z AUTO 25009KT 10SM SCT050 32/19 A3003 RMK AO2 SLP167 T03170194
Observed
Jun-16 @ 18:52 UTC
Wind
  • 250° at 9 KTS
Visibility
10 SM
Flight Rules
VFR
Cloud Levels
  • Scattered at 5,000' AGL
Temperature
32°C / 90°F
Dewpoint
19°C / 66°F
Heat Index
34°C / 93°F
Humidity
46%
Altimeter
30.03" Hg
Pressure
1016.92 hPa
Previous

3 hours ago

KMEB 161752Z AUTO 22011KT 10SM FEW045 SCT060 31/19 A3005 RMK AO2 SLP173 T03110194 10317 20217 58017
Observed
Jun-16 @ 17:52 UTC
Wind
  • 220° at 11 KTS
Visibility
10 SM
Flight Rules
VFR
Cloud Levels
  • Few at 4,500' AGL
  • Scattered at 6,000' AGL
Temperature
31°C / 88°F
Dewpoint
19°C / 66°F
Heat Index
33°C / 91°F
Humidity
49%
Altimeter
30.05" Hg
Pressure
1017.62 hPa